sensor_id;sensor_type;location;lat;lon;timestamp;P1;durP1;ratioP1;P2;durP2;ratioP2
47758;SDS011;33520;55.122;35.582;2022-12-29T00:01:32;9.48;;;3.72;;
47758;SDS011;33520;55.122;35.582;2022-12-29T00:03:59;10.60;;;3.63;;
47758;SDS011;33520;55.122;35.582;2022-12-29T00:06:26;7.65;;;3.60;;
47758;SDS011;33520;55.122;35.582;2022-12-29T00:08:52;13.55;;;3.50;;
47758;SDS011;33520;55.122;35.582;2022-12-29T00:11:23;7.22;;;3.38;;
47758;SDS011;33520;55.122;35.582;2022-12-29T00:13:50;6.15;;;3.40;;
47758;SDS011;33520;55.122;35.582;2022-12-29T00:16:35;7.80;;;3.47;;
47758;SDS011;33520;55.122;35.582;2022-12-29T00:19:02;10.52;;;3.30;;
47758;SDS011;33520;55.122;35.582;2022-12-29T00:21:29;7.53;;;3.45;;
47758;SDS011;33520;55.122;35.582;2022-12-29T00:24:16;9.88;;;3.03;;
47758;SDS011;33520;55.122;35.582;2022-12-29T00:26:55;8.77;;;3.30;;
47758;SDS011;33520;55.122;35.582;2022-12-29T00:29:43;7.43;;;3.08;;
47758;SDS011;33520;55.122;35.582;2022-12-29T00:32:28;7.72;;;2.83;;
47758;SDS011;33520;55.122;35.582;2022-12-29T00:35:16;7.25;;;3.13;;
47758;SDS011;33520;55.122;35.582;2022-12-29T00:37:55;7.18;;;2.97;;
47758;SDS011;33520;55.122;35.582;2022-12-29T00:40:43;10.13;;;3.47;;
47758;SDS011;33520;55.122;35.582;2022-12-29T00:43:27;9.02;;;3.40;;
47758;SDS011;33520;55.122;35.582;2022-12-29T00:46:12;8.18;;;3.33;;
47758;SDS011;33520;55.122;35.582;2022-12-29T00:48:39;10.73;;;3.10;;
47758;SDS011;33520;55.122;35.582;2022-12-29T00:51:24;8.52;;;3.00;;
47758;SDS011;33520;55.122;35.582;2022-12-29T00:53:50;8.10;;;3.33;;
47758;SDS011;33520;55.122;35.582;2022-12-29T00:56:16;9.30;;;3.30;;
47758;SDS011;33520;55.122;35.582;2022-12-29T00:58:43;11.32;;;3.85;;
47758;SDS011;33520;55.122;35.582;2022-12-29T01:01:09;7.10;;;3.53;;
47758;SDS011;33520;55.122;35.582;2022-12-29T01:03:36;7.93;;;2.70;;
47758;SDS011;33520;55.122;35.582;2022-12-29T01:06:03;10.35;;;3.58;;
47758;SDS011;33520;55.122;35.582;2022-12-29T01:08:31;7.07;;;3.10;;
47758;SDS011;33520;55.122;35.582;2022-12-29T01:13:26;10.55;;;2.50;;
47758;SDS011;33520;55.122;35.582;2022-12-29T01:18:20;7.85;;;2.92;;
47758;SDS011;33520;55.122;35.582;2022-12-29T01:20:46;6.55;;;2.65;;
47758;SDS011;33520;55.122;35.582;2022-12-29T01:23:13;8.27;;;3.20;;
47758;SDS011;33520;55.122;35.582;2022-12-29T01:25:40;7.78;;;3.20;;
47758;SDS011;33520;55.122;35.582;2022-12-29T01:28:06;10.65;;;3.35;;
47758;SDS011;33520;55.122;35.582;2022-12-29T01:30:34;9.07;;;3.22;;
47758;SDS011;33520;55.122;35.582;2022-12-29T01:33:01;4.03;;;2.53;;
47758;SDS011;33520;55.122;35.582;2022-12-29T01:35:27;7.65;;;3.20;;
47758;SDS011;33520;55.122;35.582;2022-12-29T01:37:57;8.60;;;3.38;;
47758;SDS011;33520;55.122;35.582;2022-12-29T01:40:23;11.57;;;3.30;;
47758;SDS011;33520;55.122;35.582;2022-12-29T01:42:50;7.40;;;3.03;;
47758;SDS011;33520;55.122;35.582;2022-12-29T01:45:17;8.50;;;3.25;;
47758;SDS011;33520;55.122;35.582;2022-12-29T01:47:52;7.55;;;3.22;;
47758;SDS011;33520;55.122;35.582;2022-12-29T01:52:50;7.75;;;2.53;;
47758;SDS011;33520;55.122;35.582;2022-12-29T01:55:38;11.82;;;3.03;;
47758;SDS011;33520;55.122;35.582;2022-12-29T01:58:07;8.80;;;2.45;;
47758;SDS011;33520;55.122;35.582;2022-12-29T02:00:35;6.32;;;2.50;;
47758;SDS011;33520;55.122;35.582;2022-12-29T02:03:02;3.63;;;2.30;;
47758;SDS011;33520;55.122;35.582;2022-12-29T02:08:07;7.47;;;2.90;;
47758;SDS011;33520;55.122;35.582;2022-12-29T02:10:35;5.78;;;1.98;;
47758;SDS011;33520;55.122;35.582;2022-12-29T02:13:02;4.28;;;2.13;;
47758;SDS011;33520;55.122;35.582;2022-12-29T02:18:20;6.72;;;2.33;;
47758;SDS011;33520;55.122;35.582;2022-12-29T02:27:01;3.67;;;2.30;;
47758;SDS011;33520;55.122;35.582;2022-12-29T02:32:39;5.07;;;1.98;;
47758;SDS011;33520;55.122;35.582;2022-12-29T02:35:08;6.72;;;2.10;;
47758;SDS011;33520;55.122;35.582;2022-12-29T02:37:41;3.97;;;1.95;;
47758;SDS011;33520;55.122;35.582;2022-12-29T02:45:36;7.07;;;2.40;;
47758;SDS011;33520;55.122;35.582;2022-12-29T02:48:09;4.65;;;3.00;;
47758;SDS011;33520;55.122;35.582;2022-12-29T02:50:48;5.50;;;1.92;;
47758;SDS011;33520;55.122;35.582;2022-12-29T02:53:25;5.72;;;2.17;;
47758;SDS011;33520;55.122;35.582;2022-12-29T02:56:13;4.35;;;2.30;;
47758;SDS011;33520;55.122;35.582;2022-12-29T02:58:40;4.45;;;2.42;;
47758;SDS011;33520;55.122;35.582;2022-12-29T03:01:29;7.32;;;2.20;;
47758;SDS011;33520;55.122;35.582;2022-12-29T03:06:52;4.20;;;2.50;;
47758;SDS011;33520;55.122;35.582;2022-12-29T03:15:28;8.07;;;2.65;;
47758;SDS011;33520;55.122;35.582;2022-12-29T03:18:20;7.78;;;2.75;;
47758;SDS011;33520;55.122;35.582;2022-12-29T03:20:52;5.90;;;3.08;;
47758;SDS011;33520;55.122;35.582;2022-12-29T03:23:33;5.32;;;2.50;;
47758;SDS011;33520;55.122;35.582;2022-12-29T03:26:01;5.68;;;2.72;;
47758;SDS011;33520;55.122;35.582;2022-12-29T03:28:42;6.45;;;2.63;;
47758;SDS011;33520;55.122;35.582;2022-12-29T03:31:19;7.45;;;2.70;;
47758;SDS011;33520;55.122;35.582;2022-12-29T03:33:47;6.18;;;2.72;;
47758;SDS011;33520;55.122;35.582;2022-12-29T03:36:20;6.28;;;3.33;;
47758;SDS011;33520;55.122;35.582;2022-12-29T03:38:59;9.45;;;3.70;;
47758;SDS011;33520;55.122;35.582;2022-12-29T03:41:37;6.18;;;3.25;;
47758;SDS011;33520;55.122;35.582;2022-12-29T03:44:08;7.85;;;3.40;;
47758;SDS011;33520;55.122;35.582;2022-12-29T03:46:36;7.45;;;2.95;;
47758;SDS011;33520;55.122;35.582;2022-12-29T03:49:02;7.55;;;3.10;;
47758;SDS011;33520;55.122;35.582;2022-12-29T03:51:29;6.15;;;2.22;;
47758;SDS011;33520;55.122;35.582;2022-12-29T03:53:56;6.00;;;2.78;;
47758;SDS011;33520;55.122;35.582;2022-12-29T03:56:22;7.70;;;2.72;;
47758;SDS011;33520;55.122;35.582;2022-12-29T03:58:50;8.00;;;3.67;;
47758;SDS011;33520;55.122;35.582;2022-12-29T04:01:23;7.30;;;2.67;;
47758;SDS011;33520;55.122;35.582;2022-12-29T04:03:49;8.40;;;3.67;;
47758;SDS011;33520;55.122;35.582;2022-12-29T04:06:16;8.30;;;2.95;;
47758;SDS011;33520;55.122;35.582;2022-12-29T04:08:47;5.30;;;3.03;;
47758;SDS011;33520;55.122;35.582;2022-12-29T04:11:13;6.53;;;2.60;;
47758;SDS011;33520;55.122;35.582;2022-12-29T04:13:41;5.55;;;2.92;;
47758;SDS011;33520;55.122;35.582;2022-12-29T04:16:09;5.43;;;3.03;;
47758;SDS011;33520;55.122;35.582;2022-12-29T04:18:36;11.13;;;3.97;;
47758;SDS011;33520;55.122;35.582;2022-12-29T04:21:02;5.30;;;2.85;;
47758;SDS011;33520;55.122;35.582;2022-12-29T04:23:32;9.02;;;3.40;;
47758;SDS011;33520;55.122;35.582;2022-12-29T04:26:02;5.13;;;3.20;;
47758;SDS011;33520;55.122;35.582;2022-12-29T04:28:28;10.68;;;3.47;;
47758;SDS011;33520;55.122;35.582;2022-12-29T04:31:10;6.00;;;2.80;;
47758;SDS011;33520;55.122;35.582;2022-12-29T04:33:40;8.80;;;3.10;;
47758;SDS011;33520;55.122;35.582;2022-12-29T04:38:33;7.93;;;2.90;;
47758;SDS011;33520;55.122;35.582;2022-12-29T04:41:02;6.68;;;3.05;;
47758;SDS011;33520;55.122;35.582;2022-12-29T04:43:31;9.88;;;3.97;;
47758;SDS011;33520;55.122;35.582;2022-12-29T04:46:07;7.70;;;3.17;;
47758;SDS011;33520;55.122;35.582;2022-12-29T04:48:45;7.65;;;3.20;;
47758;SDS011;33520;55.122;35.582;2022-12-29T04:51:32;6.72;;;3.40;;
47758;SDS011;33520;55.122;35.582;2022-12-29T04:53:59;7.82;;;3.65;;
47758;SDS011;33520;55.122;35.582;2022-12-29T04:56:30;9.52;;;3.40;;
47758;SDS011;33520;55.122;35.582;2022-12-29T05:01:23;6.20;;;2.95;;
47758;SDS011;33520;55.122;35.582;2022-12-29T05:03:50;9.25;;;2.92;;
47758;SDS011;33520;55.122;35.582;2022-12-29T05:06:17;7.40;;;2.92;;
47758;SDS011;33520;55.122;35.582;2022-12-29T05:08:45;7.90;;;3.50;;
47758;SDS011;33520;55.122;35.582;2022-12-29T05:11:11;12.48;;;3.90;;
47758;SDS011;33520;55.122;35.582;2022-12-29T05:16:04;11.23;;;3.45;;
47758;SDS011;33520;55.122;35.582;2022-12-29T05:20:58;10.48;;;3.08;;
47758;SDS011;33520;55.122;35.582;2022-12-29T05:23:24;8.60;;;3.58;;
47758;SDS011;33520;55.122;35.582;2022-12-29T05:25:58;8.50;;;3.45;;
47758;SDS011;33520;55.122;35.582;2022-12-29T05:28:33;11.07;;;3.53;;
47758;SDS011;33520;55.122;35.582;2022-12-29T05:31:11;5.32;;;2.80;;
47758;SDS011;33520;55.122;35.582;2022-12-29T05:33:38;8.40;;;3.17;;
47758;SDS011;33520;55.122;35.582;2022-12-29T05:36:05;8.85;;;3.25;;
47758;SDS011;33520;55.122;35.582;2022-12-29T05:38:33;11.20;;;3.53;;
47758;SDS011;33520;55.122;35.582;2022-12-29T05:41:00;8.18;;;3.40;;
47758;SDS011;33520;55.122;35.582;2022-12-29T05:43:51;9.00;;;3.25;;
47758;SDS011;33520;55.122;35.582;2022-12-29T05:46:26;9.43;;;4.47;;
47758;SDS011;33520;55.122;35.582;2022-12-29T05:49:01;7.28;;;3.17;;
47758;SDS011;33520;55.122;35.582;2022-12-29T05:51:51;11.02;;;3.70;;
47758;SDS011;33520;55.122;35.582;2022-12-29T05:54:17;7.20;;;2.75;;
47758;SDS011;33520;55.122;35.582;2022-12-29T05:56:45;6.70;;;3.13;;
47758;SDS011;33520;55.122;35.582;2022-12-29T05:59:11;6.65;;;3.15;;
47758;SDS011;33520;55.122;35.582;2022-12-29T06:01:38;8.10;;;3.08;;
47758;SDS011;33520;55.122;35.582;2022-12-29T06:04:05;5.22;;;2.75;;
47758;SDS011;33520;55.122;35.582;2022-12-29T06:06:31;7.57;;;3.08;;
47758;SDS011;33520;55.122;35.582;2022-12-29T06:08:58;7.05;;;2.70;;
47758;SDS011;33520;55.122;35.582;2022-12-29T06:11:25;8.40;;;2.70;;
47758;SDS011;33520;55.122;35.582;2022-12-29T06:13:55;5.60;;;2.60;;
47758;SDS011;33520;55.122;35.582;2022-12-29T06:16:23;6.35;;;2.72;;
47758;SDS011;33520;55.122;35.582;2022-12-29T06:18:53;7.95;;;2.80;;
47758;SDS011;33520;55.122;35.582;2022-12-29T06:21:19;7.80;;;2.60;;
47758;SDS011;33520;55.122;35.582;2022-12-29T06:23:45;7.40;;;3.13;;
47758;SDS011;33520;55.122;35.582;2022-12-29T06:26:12;6.07;;;2.83;;
47758;SDS011;33520;55.122;35.582;2022-12-29T06:28:38;4.28;;;2.42;;
47758;SDS011;33520;55.122;35.582;2022-12-29T06:31:05;6.82;;;2.40;;
47758;SDS011;33520;55.122;35.582;2022-12-29T06:33:35;4.78;;;3.03;;
47758;SDS011;33520;55.122;35.582;2022-12-29T06:38:30;5.47;;;3.10;;
47758;SDS011;33520;55.122;35.582;2022-12-29T06:40:57;8.48;;;3.10;;
47758;SDS011;33520;55.122;35.582;2022-12-29T06:43:37;5.97;;;3.00;;
47758;SDS011;33520;55.122;35.582;2022-12-29T06:46:22;4.60;;;2.67;;
47758;SDS011;33520;55.122;35.582;2022-12-29T06:48:49;5.65;;;3.22;;
47758;SDS011;33520;55.122;35.582;2022-12-29T06:51:15;8.38;;;3.38;;
47758;SDS011;33520;55.122;35.582;2022-12-29T06:53:41;7.30;;;2.92;;
47758;SDS011;33520;55.122;35.582;2022-12-29T06:56:07;4.53;;;2.72;;
47758;SDS011;33520;55.122;35.582;2022-12-29T06:58:34;6.00;;;3.15;;
47758;SDS011;33520;55.122;35.582;2022-12-29T07:01:00;6.78;;;2.75;;
47758;SDS011;33520;55.122;35.582;2022-12-29T07:03:26;6.15;;;3.10;;
47758;SDS011;33520;55.122;35.582;2022-12-29T07:05:52;7.18;;;3.47;;
47758;SDS011;33520;55.122;35.582;2022-12-29T07:08:20;3.72;;;2.28;;
47758;SDS011;33520;55.122;35.582;2022-12-29T07:13:12;4.78;;;2.58;;
47758;SDS011;33520;55.122;35.582;2022-12-29T07:15:39;6.28;;;3.35;;
47758;SDS011;33520;55.122;35.582;2022-12-29T07:18:05;5.80;;;2.92;;
47758;SDS011;33520;55.122;35.582;2022-12-29T07:22:58;8.45;;;3.67;;
47758;SDS011;33520;55.122;35.582;2022-12-29T07:25:24;30.23;;;12.35;;
47758;SDS011;33520;55.122;35.582;2022-12-29T07:27:51;12.55;;;5.75;;
47758;SDS011;33520;55.122;35.582;2022-12-29T07:30:17;7.88;;;3.10;;
47758;SDS011;33520;55.122;35.582;2022-12-29T07:32:43;5.28;;;3.47;;
47758;SDS011;33520;55.122;35.582;2022-12-29T07:35:09;9.13;;;5.07;;
47758;SDS011;33520;55.122;35.582;2022-12-29T07:37:36;6.85;;;2.97;;
47758;SDS011;33520;55.122;35.582;2022-12-29T07:40:02;10.95;;;5.53;;
47758;SDS011;33520;55.122;35.582;2022-12-29T07:42:30;7.82;;;3.30;;
47758;SDS011;33520;55.122;35.582;2022-12-29T07:44:58;6.90;;;3.25;;
47758;SDS011;33520;55.122;35.582;2022-12-29T07:47:35;5.47;;;3.00;;
47758;SDS011;33520;55.122;35.582;2022-12-29T07:50:01;6.63;;;3.75;;
47758;SDS011;33520;55.122;35.582;2022-12-29T07:52:27;7.50;;;3.50;;
47758;SDS011;33520;55.122;35.582;2022-12-29T07:54:54;6.68;;;3.03;;
47758;SDS011;33520;55.122;35.582;2022-12-29T07:57:20;8.15;;;2.90;;
47758;SDS011;33520;55.122;35.582;2022-12-29T07:59:46;7.25;;;3.28;;
47758;SDS011;33520;55.122;35.582;2022-12-29T08:02:12;4.53;;;2.65;;
47758;SDS011;33520;55.122;35.582;2022-12-29T08:04:38;7.15;;;3.88;;
47758;SDS011;33520;55.122;35.582;2022-12-29T08:07:05;15.65;;;4.85;;
47758;SDS011;33520;55.122;35.582;2022-12-29T08:09:31;9.60;;;4.63;;
47758;SDS011;33520;55.122;35.582;2022-12-29T08:11:57;9.98;;;4.57;;
47758;SDS011;33520;55.122;35.582;2022-12-29T08:14:24;9.45;;;3.58;;
47758;SDS011;33520;55.122;35.582;2022-12-29T08:16:50;10.38;;;3.63;;
47758;SDS011;33520;55.122;35.582;2022-12-29T08:19:17;7.95;;;3.63;;
47758;SDS011;33520;55.122;35.582;2022-12-29T08:21:43;8.45;;;4.35;;
47758;SDS011;33520;55.122;35.582;2022-12-29T08:24:09;9.70;;;3.88;;
47758;SDS011;33520;55.122;35.582;2022-12-29T08:26:36;9.50;;;4.13;;
47758;SDS011;33520;55.122;35.582;2022-12-29T08:29:02;8.48;;;4.00;;
47758;SDS011;33520;55.122;35.582;2022-12-29T08:31:29;12.60;;;4.43;;
47758;SDS011;33520;55.122;35.582;2022-12-29T08:36:21;12.45;;;5.72;;
47758;SDS011;33520;55.122;35.582;2022-12-29T08:38:47;12.30;;;6.15;;
47758;SDS011;33520;55.122;35.582;2022-12-29T08:41:13;14.80;;;6.45;;
47758;SDS011;33520;55.122;35.582;2022-12-29T08:46:06;10.32;;;5.47;;
47758;SDS011;33520;55.122;35.582;2022-12-29T08:48:32;7.88;;;3.90;;
47758;SDS011;33520;55.122;35.582;2022-12-29T08:50:59;11.75;;;4.20;;
47758;SDS011;33520;55.122;35.582;2022-12-29T08:53:26;18.67;;;4.78;;
47758;SDS011;33520;55.122;35.582;2022-12-29T08:55:57;6.10;;;3.38;;
47758;SDS011;33520;55.122;35.582;2022-12-29T08:58:24;8.20;;;3.60;;
47758;SDS011;33520;55.122;35.582;2022-12-29T09:01:09;6.95;;;3.20;;
47758;SDS011;33520;55.122;35.582;2022-12-29T09:03:37;7.18;;;3.58;;
47758;SDS011;33520;55.122;35.582;2022-12-29T09:08:29;7.28;;;4.18;;
47758;SDS011;33520;55.122;35.582;2022-12-29T09:11:04;6.47;;;2.70;;
47758;SDS011;33520;55.122;35.582;2022-12-29T09:13:37;6.30;;;2.80;;
47758;SDS011;33520;55.122;35.582;2022-12-29T09:18:30;6.72;;;2.78;;
47758;SDS011;33520;55.122;35.582;2022-12-29T09:21:00;7.53;;;3.40;;
47758;SDS011;33520;55.122;35.582;2022-12-29T09:23:28;7.63;;;3.33;;
47758;SDS011;33520;55.122;35.582;2022-12-29T09:25:54;5.40;;;2.78;;
47758;SDS011;33520;55.122;35.582;2022-12-29T09:28:21;6.25;;;3.22;;
47758;SDS011;33520;55.122;35.582;2022-12-29T09:30:47;5.00;;;3.20;;
47758;SDS011;33520;55.122;35.582;2022-12-29T09:35:42;8.65;;;3.22;;
47758;SDS011;33520;55.122;35.582;2022-12-29T09:38:14;5.88;;;2.85;;
47758;SDS011;33520;55.122;35.582;2022-12-29T09:40:41;5.75;;;3.13;;
47758;SDS011;33520;55.122;35.582;2022-12-29T09:43:23;8.65;;;3.13;;
47758;SDS011;33520;55.122;35.582;2022-12-29T09:48:50;4.47;;;2.88;;
47758;SDS011;33520;55.122;35.582;2022-12-29T09:51:21;4.93;;;2.70;;
47758;SDS011;33520;55.122;35.582;2022-12-29T09:53:51;5.75;;;3.35;;
47758;SDS011;33520;55.122;35.582;2022-12-29T09:56:21;6.03;;;2.95;;
47758;SDS011;33520;55.122;35.582;2022-12-29T09:58:52;6.70;;;3.22;;
47758;SDS011;33520;55.122;35.582;2022-12-29T10:07:02;5.95;;;3.10;;
47758;SDS011;33520;55.122;35.582;2022-12-29T10:14:47;5.60;;;3.45;;
47758;SDS011;33520;55.122;35.582;2022-12-29T10:22:52;8.02;;;3.22;;
47758;SDS011;33520;55.122;35.582;2022-12-29T10:25:22;6.07;;;3.15;;
47758;SDS011;33520;55.122;35.582;2022-12-29T10:27:50;6.25;;;3.20;;
47758;SDS011;33520;55.122;35.582;2022-12-29T10:30:19;7.25;;;3.50;;
47758;SDS011;33520;55.122;35.582;2022-12-29T10:32:47;6.38;;;3.63;;
47758;SDS011;33520;55.122;35.582;2022-12-29T10:35:24;10.15;;;3.90;;
47758;SDS011;33520;55.122;35.582;2022-12-29T10:40:26;7.18;;;4.05;;
47758;SDS011;33520;55.122;35.582;2022-12-29T10:42:54;6.75;;;3.83;;
47758;SDS011;33520;55.122;35.582;2022-12-29T10:45:22;6.55;;;3.30;;
47758;SDS011;33520;55.122;35.582;2022-12-29T10:48:11;9.30;;;3.60;;
47758;SDS011;33520;55.122;35.582;2022-12-29T10:50:45;23.25;;;12.02;;
47758;SDS011;33520;55.122;35.582;2022-12-29T10:53:15;11.20;;;6.00;;
47758;SDS011;33520;55.122;35.582;2022-12-29T10:55:45;6.47;;;3.22;;
47758;SDS011;33520;55.122;35.582;2022-12-29T11:00:38;7.63;;;3.92;;
47758;SDS011;33520;55.122;35.582;2022-12-29T11:03:11;8.18;;;4.68;;
47758;SDS011;33520;55.122;35.582;2022-12-29T11:08:24;8.52;;;3.80;;
47758;SDS011;33520;55.122;35.582;2022-12-29T11:10:59;7.00;;;4.22;;
47758;SDS011;33520;55.122;35.582;2022-12-29T11:13:28;9.00;;;4.07;;
47758;SDS011;33520;55.122;35.582;2022-12-29T11:15:56;13.50;;;4.72;;
47758;SDS011;33520;55.122;35.582;2022-12-29T11:18:38;7.88;;;4.63;;
47758;SDS011;33520;55.122;35.582;2022-12-29T11:21:07;7.70;;;5.03;;
47758;SDS011;33520;55.122;35.582;2022-12-29T11:24:01;7.30;;;4.60;;
47758;SDS011;33520;55.122;35.582;2022-12-29T11:26:31;11.07;;;4.57;;
47758;SDS011;33520;55.122;35.582;2022-12-29T11:31:44;10.68;;;4.43;;
47758;SDS011;33520;55.122;35.582;2022-12-29T11:34:19;9.35;;;4.53;;
47758;SDS011;33520;55.122;35.582;2022-12-29T11:36:52;12.23;;;4.75;;
47758;SDS011;33520;55.122;35.582;2022-12-29T11:39:28;14.48;;;5.43;;
47758;SDS011;33520;55.122;35.582;2022-12-29T11:41:58;13.13;;;4.45;;
47758;SDS011;33520;55.122;35.582;2022-12-29T11:44:25;11.43;;;4.80;;
47758;SDS011;33520;55.122;35.582;2022-12-29T11:46:52;10.60;;;4.88;;
47758;SDS011;33520;55.122;35.582;2022-12-29T11:49:22;12.55;;;6.57;;
47758;SDS011;33520;55.122;35.582;2022-12-29T11:51:51;8.98;;;4.95;;
47758;SDS011;33520;55.122;35.582;2022-12-29T11:54:27;11.80;;;5.05;;
47758;SDS011;33520;55.122;35.582;2022-12-29T11:56:57;8.32;;;4.32;;
47758;SDS011;33520;55.122;35.582;2022-12-29T12:01:56;10.80;;;4.50;;
47758;SDS011;33520;55.122;35.582;2022-12-29T12:04:28;9.73;;;4.03;;
47758;SDS011;33520;55.122;35.582;2022-12-29T12:07:16;11.98;;;4.53;;
47758;SDS011;33520;55.122;35.582;2022-12-29T12:09:51;12.13;;;5.10;;
47758;SDS011;33520;55.122;35.582;2022-12-29T12:12:25;14.20;;;5.05;;
47758;SDS011;33520;55.122;35.582;2022-12-29T12:14:56;12.30;;;5.55;;
47758;SDS011;33520;55.122;35.582;2022-12-29T12:21:05;10.77;;;4.95;;
47758;SDS011;33520;55.122;35.582;2022-12-29T12:23:37;12.82;;;5.85;;
47758;SDS011;33520;55.122;35.582;2022-12-29T12:37:15;13.90;;;5.43;;
47758;SDS011;33520;55.122;35.582;2022-12-29T12:42:50;17.13;;;5.68;;
47758;SDS011;33520;55.122;35.582;2022-12-29T12:45:32;12.45;;;5.75;;
47758;SDS011;33520;55.122;35.582;2022-12-29T12:59:38;23.27;;;7.68;;
47758;SDS011;33520;55.122;35.582;2022-12-29T13:02:15;20.60;;;7.35;;
47758;SDS011;33520;55.122;35.582;2022-12-29T13:07:54;16.63;;;7.15;;
47758;SDS011;33520;55.122;35.582;2022-12-29T13:13:36;21.30;;;7.70;;
47758;SDS011;33520;55.122;35.582;2022-12-29T13:16:15;16.42;;;7.05;;
47758;SDS011;33520;55.122;35.582;2022-12-29T13:18:54;17.00;;;6.95;;
47758;SDS011;33520;55.122;35.582;2022-12-29T13:21:33;14.77;;;6.07;;
47758;SDS011;33520;55.122;35.582;2022-12-29T13:27:11;23.00;;;7.38;;
47758;SDS011;33520;55.122;35.582;2022-12-29T13:29:47;20.17;;;6.78;;
47758;SDS011;33520;55.122;35.582;2022-12-29T13:32:21;20.48;;;7.53;;
47758;SDS011;33520;55.122;35.582;2022-12-29T13:35:12;20.80;;;7.38;;
47758;SDS011;33520;55.122;35.582;2022-12-29T13:37:55;16.58;;;7.18;;
47758;SDS011;33520;55.122;35.582;2022-12-29T13:40:26;17.35;;;7.57;;
47758;SDS011;33520;55.122;35.582;2022-12-29T13:42:59;21.45;;;8.68;;
47758;SDS011;33520;55.122;35.582;2022-12-29T13:45:28;20.83;;;8.80;;
47758;SDS011;33520;55.122;35.582;2022-12-29T13:48:14;22.42;;;9.48;;
47758;SDS011;33520;55.122;35.582;2022-12-29T13:50:48;19.75;;;8.35;;
47758;SDS011;33520;55.122;35.582;2022-12-29T13:56:52;21.25;;;8.13;;
47758;SDS011;33520;55.122;35.582;2022-12-29T13:59:19;24.33;;;9.05;;
47758;SDS011;33520;55.122;35.582;2022-12-29T14:01:50;22.08;;;7.88;;
47758;SDS011;33520;55.122;35.582;2022-12-29T14:04:26;26.75;;;10.57;;
47758;SDS011;33520;55.122;35.582;2022-12-29T14:09:33;23.48;;;9.82;;
47758;SDS011;33520;55.122;35.582;2022-12-29T14:12:28;23.33;;;9.35;;
47758;SDS011;33520;55.122;35.582;2022-12-29T14:15:13;25.95;;;9.80;;
47758;SDS011;33520;55.122;35.582;2022-12-29T14:17:44;17.08;;;8.15;;
47758;SDS011;33520;55.122;35.582;2022-12-29T14:20:26;17.55;;;8.15;;
47758;SDS011;33520;55.122;35.582;2022-12-29T14:22:56;26.10;;;12.77;;
47758;SDS011;33520;55.122;35.582;2022-12-29T14:25:59;18.10;;;8.30;;
47758;SDS011;33520;55.122;35.582;2022-12-29T14:28:28;14.30;;;7.03;;
47758;SDS011;33520;55.122;35.582;2022-12-29T14:30:59;16.65;;;6.60;;
47758;SDS011;33520;55.122;35.582;2022-12-29T14:33:31;14.23;;;7.00;;
47758;SDS011;33520;55.122;35.582;2022-12-29T14:36:20;13.27;;;7.13;;
47758;SDS011;33520;55.122;35.582;2022-12-29T14:38:51;15.15;;;6.78;;
47758;SDS011;33520;55.122;35.582;2022-12-29T14:41:23;14.27;;;7.15;;
47758;SDS011;33520;55.122;35.582;2022-12-29T14:44:02;14.27;;;7.25;;
47758;SDS011;33520;55.122;35.582;2022-12-29T14:49:14;13.95;;;6.57;;
47758;SDS011;33520;55.122;35.582;2022-12-29T14:51:43;15.45;;;6.43;;
47758;SDS011;33520;55.122;35.582;2022-12-29T14:57:34;13.63;;;6.10;;
47758;SDS011;33520;55.122;35.582;2022-12-29T15:00:45;15.35;;;6.30;;
47758;SDS011;33520;55.122;35.582;2022-12-29T15:03:07;15.93;;;6.85;;
47758;SDS011;33520;55.122;35.582;2022-12-29T15:08:10;21.13;;;8.90;;
47758;SDS011;33520;55.122;35.582;2022-12-29T15:10:55;17.73;;;7.47;;
47758;SDS011;33520;55.122;35.582;2022-12-29T15:13:36;15.02;;;6.72;;
47758;SDS011;33520;55.122;35.582;2022-12-29T15:16:05;16.52;;;6.97;;
47758;SDS011;33520;55.122;35.582;2022-12-29T15:18:56;14.38;;;7.25;;
47758;SDS011;33520;55.122;35.582;2022-12-29T15:21:26;16.05;;;7.55;;
47758;SDS011;33520;55.122;35.582;2022-12-29T15:23:56;16.55;;;7.43;;
47758;SDS011;33520;55.122;35.582;2022-12-29T15:26:22;14.88;;;6.45;;
47758;SDS011;33520;55.122;35.582;2022-12-29T15:31:18;17.90;;;8.23;;
47758;SDS011;33520;55.122;35.582;2022-12-29T15:33:50;17.60;;;8.10;;
47758;SDS011;33520;55.122;35.582;2022-12-29T15:36:22;14.95;;;7.00;;
47758;SDS011;33520;55.122;35.582;2022-12-29T15:38:53;18.08;;;7.22;;
47758;SDS011;33520;55.122;35.582;2022-12-29T15:46:23;16.27;;;8.90;;
47758;SDS011;33520;55.122;35.582;2022-12-29T15:48:49;16.23;;;7.15;;
47758;SDS011;33520;55.122;35.582;2022-12-29T15:51:17;20.23;;;8.60;;
47758;SDS011;33520;55.122;35.582;2022-12-29T15:53:48;17.77;;;7.68;;
47758;SDS011;33520;55.122;35.582;2022-12-29T15:56:16;17.85;;;7.20;;
47758;SDS011;33520;55.122;35.582;2022-12-29T15:58:44;14.55;;;7.43;;
47758;SDS011;33520;55.122;35.582;2022-12-29T16:01:22;18.98;;;7.75;;
47758;SDS011;33520;55.122;35.582;2022-12-29T16:03:50;16.58;;;7.63;;
47758;SDS011;33520;55.122;35.582;2022-12-29T16:08:57;18.25;;;8.20;;
47758;SDS011;33520;55.122;35.582;2022-12-29T16:11:46;16.75;;;7.80;;
47758;SDS011;33520;55.122;35.582;2022-12-29T16:14:21;20.25;;;7.22;;
47758;SDS011;33520;55.122;35.582;2022-12-29T16:16:52;17.20;;;7.68;;
47758;SDS011;33520;55.122;35.582;2022-12-29T16:19:21;17.17;;;7.55;;
47758;SDS011;33520;55.122;35.582;2022-12-29T16:21:53;16.45;;;7.40;;
47758;SDS011;33520;55.122;35.582;2022-12-29T16:24:20;18.23;;;7.80;;
47758;SDS011;33520;55.122;35.582;2022-12-29T16:27:32;19.10;;;7.45;;
47758;SDS011;33520;55.122;35.582;2022-12-29T16:29:53;14.55;;;7.25;;
47758;SDS011;33520;55.122;35.582;2022-12-29T16:32:30;14.85;;;7.35;;
47758;SDS011;33520;55.122;35.582;2022-12-29T16:37:44;16.00;;;7.32;;
47758;SDS011;33520;55.122;35.582;2022-12-29T16:45:22;15.32;;;7.15;;
47758;SDS011;33520;55.122;35.582;2022-12-29T16:50:31;15.35;;;7.43;;
47758;SDS011;33520;55.122;35.582;2022-12-29T16:52:59;15.45;;;7.57;;
47758;SDS011;33520;55.122;35.582;2022-12-29T16:55:26;16.08;;;7.35;;
47758;SDS011;33520;55.122;35.582;2022-12-29T16:57:52;10.68;;;6.38;;
47758;SDS011;33520;55.122;35.582;2022-12-29T17:00:22;15.73;;;6.72;;
47758;SDS011;33520;55.122;35.582;2022-12-29T17:02:50;15.48;;;7.70;;
47758;SDS011;33520;55.122;35.582;2022-12-29T17:05:18;12.85;;;6.93;;
47758;SDS011;33520;55.122;35.582;2022-12-29T17:07:45;16.15;;;6.75;;
47758;SDS011;33520;55.122;35.582;2022-12-29T17:10:11;15.57;;;6.72;;
47758;SDS011;33520;55.122;35.582;2022-12-29T17:12:42;14.63;;;6.38;;
47758;SDS011;33520;55.122;35.582;2022-12-29T17:15:24;15.70;;;7.28;;
47758;SDS011;33520;55.122;35.582;2022-12-29T17:17:53;16.02;;;7.13;;
47758;SDS011;33520;55.122;35.582;2022-12-29T17:20:22;14.07;;;7.72;;
47758;SDS011;33520;55.122;35.582;2022-12-29T17:22:49;13.88;;;7.38;;
47758;SDS011;33520;55.122;35.582;2022-12-29T17:25:23;14.95;;;7.72;;
47758;SDS011;33520;55.122;35.582;2022-12-29T17:27:54;19.42;;;8.55;;
47758;SDS011;33520;55.122;35.582;2022-12-29T17:30:35;17.13;;;7.63;;
47758;SDS011;33520;55.122;35.582;2022-12-29T17:33:02;17.88;;;7.63;;
47758;SDS011;33520;55.122;35.582;2022-12-29T17:35:30;13.80;;;7.95;;
47758;SDS011;33520;55.122;35.582;2022-12-29T17:37:56;17.75;;;7.75;;
47758;SDS011;33520;55.122;35.582;2022-12-29T17:40:26;16.40;;;7.97;;
47758;SDS011;33520;55.122;35.582;2022-12-29T17:42:54;14.80;;;7.22;;
47758;SDS011;33520;55.122;35.582;2022-12-29T17:45:25;16.83;;;7.18;;